sensor_id;sensor_type;location;lat;lon;timestamp;temperature;humidity
7117;DHT22;3600;48.568;7.870;2022-08-11T00:01:19;18.80;96.10
7117;DHT22;3600;48.568;7.870;2022-08-11T00:03:56;19.20;95.80
7117;DHT22;3600;48.568;7.870;2022-08-11T00:06:30;19.60;95.20
7117;DHT22;3600;48.568;7.870;2022-08-11T00:08:58;19.50;94.70
7117;DHT22;3600;48.568;7.870;2022-08-11T00:11:50;19.40;95.00
7117;DHT22;3600;48.568;7.870;2022-08-11T00:14:20;19.30;95.50
7117;DHT22;3600;48.568;7.870;2022-08-11T00:17:07;19.00;96.30
7117;DHT22;3600;48.568;7.870;2022-08-11T00:19:41;18.70;97.60
7117;DHT22;3600;48.568;7.870;2022-08-11T00:22:29;18.50;98.30
7117;DHT22;3600;48.568;7.870;2022-08-11T00:24:57;18.30;98.90
7117;DHT22;3600;48.568;7.870;2022-08-11T00:27:33;18.50;99.40
7117;DHT22;3600;48.568;7.870;2022-08-11T00:30:00;18.60;99.20
7117;DHT22;3600;48.568;7.870;2022-08-11T00:32:27;18.70;99.00
7117;DHT22;3600;48.568;7.870;2022-08-11T00:34:57;18.90;99.00
7117;DHT22;3600;48.568;7.870;2022-08-11T00:37:51;18.40;99.30
7117;DHT22;3600;48.568;7.870;2022-08-11T00:46:10;18.70;99.70
7117;DHT22;3600;48.568;7.870;2022-08-11T01:00:21;18.30;99.90
7117;DHT22;3600;48.568;7.870;2022-08-11T01:05:58;18.50;99.90
7117;DHT22;3600;48.568;7.870;2022-08-11T01:20:57;18.70;99.90
7117;DHT22;3600;48.568;7.870;2022-08-11T01:36:04;18.10;99.90
7117;DHT22;3600;48.568;7.870;2022-08-11T01:39:00;18.60;99.90
7117;DHT22;3600;48.568;7.870;2022-08-11T01:45:01;18.30;99.90
7117;DHT22;3600;48.568;7.870;2022-08-11T01:50:44;18.40;99.90
7117;DHT22;3600;48.568;7.870;2022-08-11T01:53:50;18.00;99.90
7117;DHT22;3600;48.568;7.870;2022-08-11T01:56:45;18.00;99.90
7117;DHT22;3600;48.568;7.870;2022-08-11T01:59:40;18.40;99.90
7117;DHT22;3600;48.568;7.870;2022-08-11T02:11:24;18.30;99.90
7117;DHT22;3600;48.568;7.870;2022-08-11T02:14:40;18.40;99.90
7117;DHT22;3600;48.568;7.870;2022-08-11T02:20:41;18.30;99.90
7117;DHT22;3600;48.568;7.870;2022-08-11T02:23:41;18.60;99.90
7117;DHT22;3600;48.568;7.870;2022-08-11T02:26:40;18.50;99.90
7117;DHT22;3600;48.568;7.870;2022-08-11T02:40:41;18.20;99.90
7117;DHT22;3600;48.568;7.870;2022-08-11T02:43:26;18.20;99.90
7117;DHT22;3600;48.568;7.870;2022-08-11T02:46:17;17.90;99.90
7117;DHT22;3600;48.568;7.870;2022-08-11T02:52:12;18.00;99.90
7117;DHT22;3600;48.568;7.870;2022-08-11T02:58:16;17.70;99.90
7117;DHT22;3600;48.568;7.870;2022-08-11T03:01:02;17.30;99.90
7117;DHT22;3600;48.568;7.870;2022-08-11T03:09:13;16.60;99.90
7117;DHT22;3600;48.568;7.870;2022-08-11T03:14:52;17.30;99.90
7117;DHT22;3600;48.568;7.870;2022-08-11T03:21:31;16.30;99.90
7117;DHT22;3600;48.568;7.870;2022-08-11T03:23:57;16.20;99.90
7117;DHT22;3600;48.568;7.870;2022-08-11T03:26:46;16.30;99.90
7117;DHT22;3600;48.568;7.870;2022-08-11T03:29:41;16.60;99.90
7117;DHT22;3600;48.568;7.870;2022-08-11T03:32:34;16.40;99.90
7117;DHT22;3600;48.568;7.870;2022-08-11T03:35:04;17.00;99.90
7117;DHT22;3600;48.568;7.870;2022-08-11T03:37:58;16.70;99.90
7117;DHT22;3600;48.568;7.870;2022-08-11T03:44:17;16.10;99.90
7117;DHT22;3600;48.568;7.870;2022-08-11T03:47:04;16.50;99.90
7117;DHT22;3600;48.568;7.870;2022-08-11T03:49:54;16.90;99.90
7117;DHT22;3600;48.568;7.870;2022-08-11T04:01:32;15.90;99.90
7117;DHT22;3600;48.568;7.870;2022-08-11T04:27:34;15.90;99.90
7117;DHT22;3600;48.568;7.870;2022-08-11T04:37:03;16.10;99.90
7117;DHT22;3600;48.568;7.870;2022-08-11T04:45:52;16.30;99.90
7117;DHT22;3600;48.568;7.870;2022-08-11T04:48:51;16.10;99.90
7117;DHT22;3600;48.568;7.870;2022-08-11T05:01:17;16.00;99.90
7117;DHT22;3600;48.568;7.870;2022-08-11T05:13:00;16.10;99.90
7117;DHT22;3600;48.568;7.870;2022-08-11T05:15:56;16.20;99.90
7117;DHT22;3600;48.568;7.870;2022-08-11T05:18:50;16.20;99.90
7117;DHT22;3600;48.568;7.870;2022-08-11T05:21:39;16.70;99.90
7117;DHT22;3600;48.568;7.870;2022-08-11T05:24:33;16.80;99.90
7117;DHT22;3600;48.568;7.870;2022-08-11T05:27:29;17.10;99.90
7117;DHT22;3600;48.568;7.870;2022-08-11T05:30:16;17.10;99.90
7117;DHT22;3600;48.568;7.870;2022-08-11T05:33:05;17.10;99.90
7117;DHT22;3600;48.568;7.870;2022-08-11T05:36:05;17.40;99.90
7117;DHT22;3600;48.568;7.870;2022-08-11T05:38:34;17.40;99.90
7117;DHT22;3600;48.568;7.870;2022-08-11T05:41:24;17.40;99.90
7117;DHT22;3600;48.568;7.870;2022-08-11T05:44:17;17.10;99.90
7117;DHT22;3600;48.568;7.870;2022-08-11T05:47:03;17.10;99.90
7117;DHT22;3600;48.568;7.870;2022-08-11T05:49:49;17.20;99.90
7117;DHT22;3600;48.568;7.870;2022-08-11T05:52:44;17.30;99.90
7117;DHT22;3600;48.568;7.870;2022-08-11T05:55:30;17.40;99.90
7117;DHT22;3600;48.568;7.870;2022-08-11T05:58:37;17.90;99.90
7117;DHT22;3600;48.568;7.870;2022-08-11T06:01:09;17.80;99.90
7117;DHT22;3600;48.568;7.870;2022-08-11T06:03:37;18.00;99.90
7117;DHT22;3600;48.568;7.870;2022-08-11T06:06:26;17.90;99.90
7117;DHT22;3600;48.568;7.870;2022-08-11T06:08:57;18.00;99.90
7117;DHT22;3600;48.568;7.870;2022-08-11T06:11:25;18.20;99.90
7117;DHT22;3600;48.568;7.870;2022-08-11T06:14:10;18.20;99.90
7117;DHT22;3600;48.568;7.870;2022-08-11T06:16:40;18.30;99.90
7117;DHT22;3600;48.568;7.870;2022-08-11T06:19:08;18.30;99.90
7117;DHT22;3600;48.568;7.870;2022-08-11T06:21:35;18.50;99.90
7117;DHT22;3600;48.568;7.870;2022-08-11T06:24:20;18.50;99.90
7117;DHT22;3600;48.568;7.870;2022-08-11T06:26:50;18.60;99.90
7117;DHT22;3600;48.568;7.870;2022-08-11T06:29:44;18.60;99.90
7117;DHT22;3600;48.568;7.870;2022-08-11T06:32:30;18.80;99.90
7117;DHT22;3600;48.568;7.870;2022-08-11T06:44:08;19.20;99.90
7117;DHT22;3600;48.568;7.870;2022-08-11T06:46:42;19.30;99.90
7117;DHT22;3600;48.568;7.870;2022-08-11T06:49:13;19.60;99.90
7117;DHT22;3600;48.568;7.870;2022-08-11T06:52:01;19.70;99.90
7117;DHT22;3600;48.568;7.870;2022-08-11T06:54:33;19.60;99.90
7117;DHT22;3600;48.568;7.870;2022-08-11T06:57:02;19.70;99.90
7117;DHT22;3600;48.568;7.870;2022-08-11T06:59:58;19.70;99.90
7117;DHT22;3600;48.568;7.870;2022-08-11T07:03:11;19.90;99.90
7117;DHT22;3600;48.568;7.870;2022-08-11T07:05:54;20.00;99.90
7117;DHT22;3600;48.568;7.870;2022-08-11T07:14:25;20.40;99.90
7117;DHT22;3600;48.568;7.870;2022-08-11T07:17:15;20.50;99.90
7117;DHT22;3600;48.568;7.870;2022-08-11T07:19:49;20.60;99.90
7117;DHT22;3600;48.568;7.870;2022-08-11T07:22:36;20.70;99.90
7117;DHT22;3600;48.568;7.870;2022-08-11T07:25:22;20.80;99.90
7117;DHT22;3600;48.568;7.870;2022-08-11T07:28:17;20.90;99.90
7117;DHT22;3600;48.568;7.870;2022-08-11T07:31:08;21.20;99.90
7117;DHT22;3600;48.568;7.870;2022-08-11T07:33:48;21.20;99.90
7117;DHT22;3600;48.568;7.870;2022-08-11T07:36:41;21.20;99.90
7117;DHT22;3600;48.568;7.870;2022-08-11T07:39:22;21.40;99.90
7117;DHT22;3600;48.568;7.870;2022-08-11T07:41:51;21.50;99.90
7117;DHT22;3600;48.568;7.870;2022-08-11T07:44:20;21.60;99.90
7117;DHT22;3600;48.568;7.870;2022-08-11T07:46:48;21.70;99.90
7117;DHT22;3600;48.568;7.870;2022-08-11T07:49:36;21.60;99.90
7117;DHT22;3600;48.568;7.870;2022-08-11T07:52:24;21.70;99.90
7117;DHT22;3600;48.568;7.870;2022-08-11T07:54:58;21.80;99.90
7117;DHT22;3600;48.568;7.870;2022-08-11T07:57:27;22.10;99.90
7117;DHT22;3600;48.568;7.870;2022-08-11T08:00:39;22.20;99.90
7117;DHT22;3600;48.568;7.870;2022-08-11T08:03:29;22.50;99.90
7117;DHT22;3600;48.568;7.870;2022-08-11T08:06:20;22.70;99.90
7117;DHT22;3600;48.568;7.870;2022-08-11T08:09:08;22.60;99.90
7117;DHT22;3600;48.568;7.870;2022-08-11T08:11:54;22.50;99.90
7117;DHT22;3600;48.568;7.870;2022-08-11T08:14:41;22.80;99.90
7117;DHT22;3600;48.568;7.870;2022-08-11T08:17:27;22.90;99.90
7117;DHT22;3600;48.568;7.870;2022-08-11T08:20:36;23.20;99.90
7117;DHT22;3600;48.568;7.870;2022-08-11T08:23:04;23.10;99.90
7117;DHT22;3600;48.568;7.870;2022-08-11T08:25:33;23.70;99.90
7117;DHT22;3600;48.568;7.870;2022-08-11T08:28:04;23.70;99.70
7117;DHT22;3600;48.568;7.870;2022-08-11T08:30:31;23.70;99.90
7117;DHT22;3600;48.568;7.870;2022-08-11T08:35:42;24.10;99.90
7117;DHT22;3600;48.568;7.870;2022-08-11T08:38:22;23.90;99.90
7117;DHT22;3600;48.568;7.870;2022-08-11T08:40:51;24.20;99.40
7117;DHT22;3600;48.568;7.870;2022-08-11T08:43:22;24.00;99.40
7117;DHT22;3600;48.568;7.870;2022-08-11T08:45:53;24.30;98.60
7117;DHT22;3600;48.568;7.870;2022-08-11T08:48:23;24.50;98.40
7117;DHT22;3600;48.568;7.870;2022-08-11T08:51:01;24.50;97.70
7117;DHT22;3600;48.568;7.870;2022-08-11T08:53:50;24.60;97.20
7117;DHT22;3600;48.568;7.870;2022-08-11T08:56:25;25.00;97.10
7117;DHT22;3600;48.568;7.870;2022-08-11T08:58:54;25.20;96.80
7117;DHT22;3600;48.568;7.870;2022-08-11T09:01:22;25.20;96.00
7117;DHT22;3600;48.568;7.870;2022-08-11T09:03:51;25.00;95.60
7117;DHT22;3600;48.568;7.870;2022-08-11T09:06:38;25.20;96.00
7117;DHT22;3600;48.568;7.870;2022-08-11T09:09:06;25.40;95.00
7117;DHT22;3600;48.568;7.870;2022-08-11T09:11:39;26.00;92.00
7117;DHT22;3600;48.568;7.870;2022-08-11T09:14:17;26.00;91.40
7117;DHT22;3600;48.568;7.870;2022-08-11T09:16:44;26.10;91.90
7117;DHT22;3600;48.568;7.870;2022-08-11T09:19:14;26.20;91.50
7117;DHT22;3600;48.568;7.870;2022-08-11T09:21:48;25.80;92.10
7117;DHT22;3600;48.568;7.870;2022-08-11T09:24:37;26.10;92.60
7117;DHT22;3600;48.568;7.870;2022-08-11T09:27:24;26.40;85.20
7117;DHT22;3600;48.568;7.870;2022-08-11T09:29:51;26.80;84.10
7117;DHT22;3600;48.568;7.870;2022-08-11T09:32:20;26.70;81.10
7117;DHT22;3600;48.568;7.870;2022-08-11T09:34:49;26.80;82.20
7117;DHT22;3600;48.568;7.870;2022-08-11T09:37:20;26.80;80.70
7117;DHT22;3600;48.568;7.870;2022-08-11T09:40:23;26.90;79.20
7117;DHT22;3600;48.568;7.870;2022-08-11T09:43:02;26.90;78.30
7117;DHT22;3600;48.568;7.870;2022-08-11T09:45:50;27.40;72.90
7117;DHT22;3600;48.568;7.870;2022-08-11T09:48:19;27.30;73.90
7117;DHT22;3600;48.568;7.870;2022-08-11T09:50:54;27.20;75.40
7117;DHT22;3600;48.568;7.870;2022-08-11T09:53:22;27.40;75.50
7117;DHT22;3600;48.568;7.870;2022-08-11T09:56:06;27.30;75.70
7117;DHT22;3600;48.568;7.870;2022-08-11T09:58:53;27.30;75.50
7117;DHT22;3600;48.568;7.870;2022-08-11T10:01:22;27.40;72.90
7117;DHT22;3600;48.568;7.870;2022-08-11T10:04:22;27.60;71.40
7117;DHT22;3600;48.568;7.870;2022-08-11T10:06:52;27.80;70.60
7117;DHT22;3600;48.568;7.870;2022-08-11T10:09:52;27.80;71.50
7117;DHT22;3600;48.568;7.870;2022-08-11T10:12:33;27.80;72.20
7117;DHT22;3600;48.568;7.870;2022-08-11T10:15:03;27.90;69.40
7117;DHT22;3600;48.568;7.870;2022-08-11T10:17:56;28.10;68.40
7117;DHT22;3600;48.568;7.870;2022-08-11T10:20:41;28.10;65.00
7117;DHT22;3600;48.568;7.870;2022-08-11T10:23:11;28.10;67.10
7117;DHT22;3600;48.568;7.870;2022-08-11T10:25:57;28.00;68.30
7117;DHT22;3600;48.568;7.870;2022-08-11T10:28:43;28.20;67.00
7117;DHT22;3600;48.568;7.870;2022-08-11T10:31:30;28.60;65.00
7117;DHT22;3600;48.568;7.870;2022-08-11T10:34:25;28.30;62.40
7117;DHT22;3600;48.568;7.870;2022-08-11T10:36:55;28.20;63.40
7117;DHT22;3600;48.568;7.870;2022-08-11T10:39:23;28.50;64.50
7117;DHT22;3600;48.568;7.870;2022-08-11T10:41:53;28.60;62.60
7117;DHT22;3600;48.568;7.870;2022-08-11T10:44:57;28.60;64.10
7117;DHT22;3600;48.568;7.870;2022-08-11T10:47:24;28.60;62.30
7117;DHT22;3600;48.568;7.870;2022-08-11T10:50:12;28.70;60.80
7117;DHT22;3600;48.568;7.870;2022-08-11T10:52:58;28.70;62.10
7117;DHT22;3600;48.568;7.870;2022-08-11T10:55:45;28.90;62.10
7117;DHT22;3600;48.568;7.870;2022-08-11T10:58:31;29.00;62.90
7117;DHT22;3600;48.568;7.870;2022-08-11T11:01:22;29.20;60.70
7117;DHT22;3600;48.568;7.870;2022-08-11T11:03:53;29.10;60.90
7117;DHT22;3600;48.568;7.870;2022-08-11T11:09:05;29.20;60.70
7117;DHT22;3600;48.568;7.870;2022-08-11T11:11:37;29.40;57.90
7117;DHT22;3600;48.568;7.870;2022-08-11T11:14:30;29.30;58.20
7117;DHT22;3600;48.568;7.870;2022-08-11T11:17:31;29.40;58.50
7117;DHT22;3600;48.568;7.870;2022-08-11T11:20:25;29.10;57.40
7117;DHT22;3600;48.568;7.870;2022-08-11T11:23:17;29.10;58.60
7117;DHT22;3600;48.568;7.870;2022-08-11T11:37:24;29.90;55.20
7117;DHT22;3600;48.568;7.870;2022-08-11T11:39:53;29.80;53.80
7117;DHT22;3600;48.568;7.870;2022-08-11T11:42:20;29.80;54.10
7117;DHT22;3600;48.568;7.870;2022-08-11T11:44:49;29.80;54.90
7117;DHT22;3600;48.568;7.870;2022-08-11T11:47:21;29.80;53.00
7117;DHT22;3600;48.568;7.870;2022-08-11T11:49:49;29.80;52.80
7117;DHT22;3600;48.568;7.870;2022-08-11T11:52:19;30.10;54.90
7117;DHT22;3600;48.568;7.870;2022-08-11T11:54:47;30.00;54.20
7117;DHT22;3600;48.568;7.870;2022-08-11T11:57:17;30.10;52.20
7117;DHT22;3600;48.568;7.870;2022-08-11T12:00:08;30.10;51.50
7117;DHT22;3600;48.568;7.870;2022-08-11T12:03:01;30.00;52.40
7117;DHT22;3600;48.568;7.870;2022-08-11T12:05:30;30.30;53.00
7117;DHT22;3600;48.568;7.870;2022-08-11T12:08:01;30.50;52.30
7117;DHT22;3600;48.568;7.870;2022-08-11T12:13:16;30.40;52.90
7117;DHT22;3600;48.568;7.870;2022-08-11T12:16:02;30.30;49.60
7117;DHT22;3600;48.568;7.870;2022-08-11T12:18:54;30.30;52.30
7117;DHT22;3600;48.568;7.870;2022-08-11T12:21:23;30.40;52.00
7117;DHT22;3600;48.568;7.870;2022-08-11T12:23:50;30.60;52.20
7117;DHT22;3600;48.568;7.870;2022-08-11T12:26:37;30.70;50.90
7117;DHT22;3600;48.568;7.870;2022-08-11T12:29:47;30.70;50.00
7117;DHT22;3600;48.568;7.870;2022-08-11T12:32:23;30.70;49.70
7117;DHT22;3600;48.568;7.870;2022-08-11T12:34:51;30.80;51.00
7117;DHT22;3600;48.568;7.870;2022-08-11T12:37:22;30.90;49.80
7117;DHT22;3600;48.568;7.870;2022-08-11T12:39:52;30.50;48.10
7117;DHT22;3600;48.568;7.870;2022-08-11T12:43:02;30.80;51.00
7117;DHT22;3600;48.568;7.870;2022-08-11T12:46:15;31.10;50.30
7117;DHT22;3600;48.568;7.870;2022-08-11T12:48:47;31.10;49.80
7117;DHT22;3600;48.568;7.870;2022-08-11T12:51:36;31.00;48.60
7117;DHT22;3600;48.568;7.870;2022-08-11T12:54:43;30.10;48.10
7117;DHT22;3600;48.568;7.870;2022-08-11T12:57:14;30.40;49.80
7117;DHT22;3600;48.568;7.870;2022-08-11T13:00:05;30.70;50.70
7117;DHT22;3600;48.568;7.870;2022-08-11T13:02:51;30.80;51.00
7117;DHT22;3600;48.568;7.870;2022-08-11T13:05:39;31.00;50.00
7117;DHT22;3600;48.568;7.870;2022-08-11T13:08:11;31.10;49.20
7117;DHT22;3600;48.568;7.870;2022-08-11T13:10:42;31.00;49.80
7117;DHT22;3600;48.568;7.870;2022-08-11T13:13:28;31.30;51.00
7117;DHT22;3600;48.568;7.870;2022-08-11T13:16:16;31.50;50.10
7117;DHT22;3600;48.568;7.870;2022-08-11T13:18:43;31.80;51.10
7117;DHT22;3600;48.568;7.870;2022-08-11T13:21:11;32.10;50.00
7117;DHT22;3600;48.568;7.870;2022-08-11T13:23:48;32.00;49.60
7117;DHT22;3600;48.568;7.870;2022-08-11T13:26:36;31.70;49.40
7117;DHT22;3600;48.568;7.870;2022-08-11T13:29:26;32.00;48.70
7117;DHT22;3600;48.568;7.870;2022-08-11T13:31:55;31.60;48.30
7117;DHT22;3600;48.568;7.870;2022-08-11T13:34:25;31.70;48.70
7117;DHT22;3600;48.568;7.870;2022-08-11T13:36:54;31.30;49.70
7117;DHT22;3600;48.568;7.870;2022-08-11T13:39:24;31.60;49.60
7117;DHT22;3600;48.568;7.870;2022-08-11T13:41:54;32.10;47.50
7117;DHT22;3600;48.568;7.870;2022-08-11T13:44:24;31.30;45.80
7117;DHT22;3600;48.568;7.870;2022-08-11T13:46:58;31.60;48.00
7117;DHT22;3600;48.568;7.870;2022-08-11T13:49:28;31.80;47.40
7117;DHT22;3600;48.568;7.870;2022-08-11T13:51:56;31.70;46.20
7117;DHT22;3600;48.568;7.870;2022-08-11T13:54:30;32.00;48.00
7117;DHT22;3600;48.568;7.870;2022-08-11T13:57:03;32.00;47.60
7117;DHT22;3600;48.568;7.870;2022-08-11T13:59:34;32.10;46.70
7117;DHT22;3600;48.568;7.870;2022-08-11T14:02:19;32.00;47.00
7117;DHT22;3600;48.568;7.870;2022-08-11T14:05:07;32.00;46.80
7117;DHT22;3600;48.568;7.870;2022-08-11T14:07:37;31.90;46.10
7117;DHT22;3600;48.568;7.870;2022-08-11T14:10:06;31.60;45.60
7117;DHT22;3600;48.568;7.870;2022-08-11T14:12:36;31.90;47.20
7117;DHT22;3600;48.568;7.870;2022-08-11T14:15:26;31.50;44.80
7117;DHT22;3600;48.568;7.870;2022-08-11T14:17:57;30.90;45.00
7117;DHT22;3600;48.568;7.870;2022-08-11T14:20:28;31.10;46.30
7117;DHT22;3600;48.568;7.870;2022-08-11T14:23:17;31.50;46.10
7117;DHT22;3600;48.568;7.870;2022-08-11T14:25:45;31.80;47.10
7117;DHT22;3600;48.568;7.870;2022-08-11T14:28:33;32.00;48.10
7117;DHT22;3600;48.568;7.870;2022-08-11T14:31:10;32.30;48.00
7117;DHT22;3600;48.568;7.870;2022-08-11T14:33:38;31.30;48.10
7117;DHT22;3600;48.568;7.870;2022-08-11T14:36:29;30.70;49.30
7117;DHT22;3600;48.568;7.870;2022-08-11T14:38:56;31.10;49.70
7117;DHT22;3600;48.568;7.870;2022-08-11T14:41:24;31.50;48.20
7117;DHT22;3600;48.568;7.870;2022-08-11T14:44:33;31.50;46.00
7117;DHT22;3600;48.568;7.870;2022-08-11T14:47:19;31.60;47.00
7117;DHT22;3600;48.568;7.870;2022-08-11T14:49:52;31.70;47.50
7117;DHT22;3600;48.568;7.870;2022-08-11T14:52:42;31.90;47.40
7117;DHT22;3600;48.568;7.870;2022-08-11T14:55:12;32.10;47.90
7117;DHT22;3600;48.568;7.870;2022-08-11T14:57:59;32.10;45.50
7117;DHT22;3600;48.568;7.870;2022-08-11T15:00:28;31.80;46.50
7117;DHT22;3600;48.568;7.870;2022-08-11T15:02:55;31.60;46.60
7117;DHT22;3600;48.568;7.870;2022-08-11T15:06:00;31.90;46.10
7117;DHT22;3600;48.568;7.870;2022-08-11T15:08:32;32.20;47.70
7117;DHT22;3600;48.568;7.870;2022-08-11T15:11:29;31.90;47.30
7117;DHT22;3600;48.568;7.870;2022-08-11T15:14:16;32.00;46.50
7117;DHT22;3600;48.568;7.870;2022-08-11T15:17:05;31.80;45.70
7117;DHT22;3600;48.568;7.870;2022-08-11T15:19:39;31.90;46.10
7117;DHT22;3600;48.568;7.870;2022-08-11T15:22:29;32.30;46.90
7117;DHT22;3600;48.568;7.870;2022-08-11T15:25:15;32.70;45.40
7117;DHT22;3600;48.568;7.870;2022-08-11T15:27:43;32.50;46.50
7117;DHT22;3600;48.568;7.870;2022-08-11T15:30:32;32.50;45.80
7117;DHT22;3600;48.568;7.870;2022-08-11T15:33:19;32.10;45.30
7117;DHT22;3600;48.568;7.870;2022-08-11T15:36:07;32.70;46.50
7117;DHT22;3600;48.568;7.870;2022-08-11T15:39:02;32.70;44.40
7117;DHT22;3600;48.568;7.870;2022-08-11T15:41:38;32.20;43.70
7117;DHT22;3600;48.568;7.870;2022-08-11T15:44:29;31.90;43.40
7117;DHT22;3600;48.568;7.870;2022-08-11T15:47:43;31.80;44.80
7117;DHT22;3600;48.568;7.870;2022-08-11T15:50:17;32.00;45.60
7117;DHT22;3600;48.568;7.870;2022-08-11T15:52:52;31.50;43.60
7117;DHT22;3600;48.568;7.870;2022-08-11T15:55:22;31.40;45.10
7117;DHT22;3600;48.568;7.870;2022-08-11T15:57:51;31.50;45.20
7117;DHT22;3600;48.568;7.870;2022-08-11T16:00:38;31.50;45.30
7117;DHT22;3600;48.568;7.870;2022-08-11T16:03:44;31.60;45.60
7117;DHT22;3600;48.568;7.870;2022-08-11T16:06:39;31.80;45.80
7117;DHT22;3600;48.568;7.870;2022-08-11T16:09:16;31.80;45.10
7117;DHT22;3600;48.568;7.870;2022-08-11T16:11:45;31.50;45.70
7117;DHT22;3600;48.568;7.870;2022-08-11T16:14:15;31.50;45.90
7117;DHT22;3600;48.568;7.870;2022-08-11T16:17:03;31.50;44.90
7117;DHT22;3600;48.568;7.870;2022-08-11T16:19:32;31.50;46.10
7117;DHT22;3600;48.568;7.870;2022-08-11T16:22:07;31.40;44.80
7117;DHT22;3600;48.568;7.870;2022-08-11T16:24:37;31.40;46.20
7117;DHT22;3600;48.568;7.870;2022-08-11T16:27:26;31.50;45.70
7117;DHT22;3600;48.568;7.870;2022-08-11T16:29:54;31.50;44.70
7117;DHT22;3600;48.568;7.870;2022-08-11T16:32:22;31.30;46.30
7117;DHT22;3600;48.568;7.870;2022-08-11T16:35:14;31.20;44.20
7117;DHT22;3600;48.568;7.870;2022-08-11T16:38:02;30.90;44.60
7117;DHT22;3600;48.568;7.870;2022-08-11T16:40:50;30.80;46.10
7117;DHT22;3600;48.568;7.870;2022-08-11T16:43:20;30.70;45.10
7117;DHT22;3600;48.568;7.870;2022-08-11T16:46:07;30.70;45.50
7117;DHT22;3600;48.568;7.870;2022-08-11T16:49:19;30.70;47.00
7117;DHT22;3600;48.568;7.870;2022-08-11T16:51:47;30.60;46.80
7117;DHT22;3600;48.568;7.870;2022-08-11T16:54:13;31.00;47.90
7117;DHT22;3600;48.568;7.870;2022-08-11T16:56:49;31.00;46.50
7117;DHT22;3600;48.568;7.870;2022-08-11T16:59:36;30.60;45.70
7117;DHT22;3600;48.568;7.870;2022-08-11T17:02:23;30.60;46.80
7117;DHT22;3600;48.568;7.870;2022-08-11T17:05:16;30.70;46.80
7117;DHT22;3600;48.568;7.870;2022-08-11T17:08:35;30.70;46.10
7117;DHT22;3600;48.568;7.870;2022-08-11T17:11:25;30.50;46.00
7117;DHT22;3600;48.568;7.870;2022-08-11T17:14:15;30.40;46.80
7117;DHT22;3600;48.568;7.870;2022-08-11T17:17:06;30.10;46.70
7117;DHT22;3600;48.568;7.870;2022-08-11T17:19:37;30.10;47.00
7117;DHT22;3600;48.568;7.870;2022-08-11T17:22:28;30.00;47.30
7117;DHT22;3600;48.568;7.870;2022-08-11T17:25:15;30.00;46.90
7117;DHT22;3600;48.568;7.870;2022-08-11T17:27:43;30.00;47.40
7117;DHT22;3600;48.568;7.870;2022-08-11T17:30:12;29.90;47.30
7117;DHT22;3600;48.568;7.870;2022-08-11T17:32:44;29.90;47.20
7117;DHT22;3600;48.568;7.870;2022-08-11T17:35:40;29.90;47.70
7117;DHT22;3600;48.568;7.870;2022-08-11T17:38:19;29.90;47.40
7117;DHT22;3600;48.568;7.870;2022-08-11T17:40:50;29.80;47.60
7117;DHT22;3600;48.568;7.870;2022-08-11T17:43:50;29.70;47.80
7117;DHT22;3600;48.568;7.870;2022-08-11T17:46:38;29.50;48.40
7117;DHT22;3600;48.568;7.870;2022-08-11T17:49:33;29.40;48.60
7117;DHT22;3600;48.568;7.870;2022-08-11T17:52:04;29.20;49.40
7117;DHT22;3600;48.568;7.870;2022-08-11T17:54:51;29.10;49.80
7117;DHT22;3600;48.568;7.870;2022-08-11T17:57:39;28.90;50.50
7117;DHT22;3600;48.568;7.870;2022-08-11T18:00:25;28.90;50.50
7117;DHT22;3600;48.568;7.870;2022-08-11T18:02:53;28.80;50.80
7117;DHT22;3600;48.568;7.870;2022-08-11T18:05:41;28.70;51.20
7117;DHT22;3600;48.568;7.870;2022-08-11T18:08:11;28.70;51.00
7117;DHT22;3600;48.568;7.870;2022-08-11T18:10:58;28.60;50.60
7117;DHT22;3600;48.568;7.870;2022-08-11T18:14:06;28.40;51.70
7117;DHT22;3600;48.568;7.870;2022-08-11T18:16:53;28.30;50.90
7117;DHT22;3600;48.568;7.870;2022-08-11T18:19:38;28.20;51.00
7117;DHT22;3600;48.568;7.870;2022-08-11T18:22:28;28.10;50.70
7117;DHT22;3600;48.568;7.870;2022-08-11T18:25:44;28.10;51.10
7117;DHT22;3600;48.568;7.870;2022-08-11T18:28:43;28.10;51.10
7117;DHT22;3600;48.568;7.870;2022-08-11T18:31:33;27.90;50.80
7117;DHT22;3600;48.568;7.870;2022-08-11T18:34:27;27.80;50.80
7117;DHT22;3600;48.568;7.870;2022-08-11T18:37:18;27.60;51.20
7117;DHT22;3600;48.568;7.870;2022-08-11T18:40:11;27.40;51.10
7117;DHT22;3600;48.568;7.870;2022-08-11T18:43:03;27.40;51.40
7117;DHT22;3600;48.568;7.870;2022-08-11T18:45:58;27.30;51.40
7117;DHT22;3600;48.568;7.870;2022-08-11T18:48:50;27.10;51.90
7117;DHT22;3600;48.568;7.870;2022-08-11T18:51:44;27.00;51.60
7117;DHT22;3600;48.568;7.870;2022-08-11T18:54:31;26.90;52.10
7117;DHT22;3600;48.568;7.870;2022-08-11T18:57:19;26.70;52.60
7117;DHT22;3600;48.568;7.870;2022-08-11T19:00:15;26.60;54.00
7117;DHT22;3600;48.568;7.870;2022-08-11T19:03:03;26.50;53.30
7117;DHT22;3600;48.568;7.870;2022-08-11T19:05:50;26.40;53.70
7117;DHT22;3600;48.568;7.870;2022-08-11T19:09:00;26.40;53.60
7117;DHT22;3600;48.568;7.870;2022-08-11T19:11:47;26.40;53.90
7117;DHT22;3600;48.568;7.870;2022-08-11T19:14:34;26.40;54.00
7117;DHT22;3600;48.568;7.870;2022-08-11T19:17:21;26.30;54.00
7117;DHT22;3600;48.568;7.870;2022-08-11T19:20:16;26.20;54.10
7117;DHT22;3600;48.568;7.870;2022-08-11T19:23:05;26.20;54.30
7117;DHT22;3600;48.568;7.870;2022-08-11T19:25:52;26.10;54.80
7117;DHT22;3600;48.568;7.870;2022-08-11T19:28:38;26.00;54.40
7117;DHT22;3600;48.568;7.870;2022-08-11T19:31:26;25.90;54.40
7117;DHT22;3600;48.568;7.870;2022-08-11T19:34:15;25.70;55.20
7117;DHT22;3600;48.568;7.870;2022-08-11T19:37:03;25.40;56.00
7117;DHT22;3600;48.568;7.870;2022-08-11T19:40:00;25.10;56.30
7117;DHT22;3600;48.568;7.870;2022-08-11T19:42:47;25.10;56.60
7117;DHT22;3600;48.568;7.870;2022-08-11T19:45:51;24.80;56.80
7117;DHT22;3600;48.568;7.870;2022-08-11T19:48:37;24.80;56.90
7117;DHT22;3600;48.568;7.870;2022-08-11T19:51:23;24.70;57.30
7117;DHT22;3600;48.568;7.870;2022-08-11T19:54:09;24.50;56.90
7117;DHT22;3600;48.568;7.870;2022-08-11T19:56:56;24.60;56.70
7117;DHT22;3600;48.568;7.870;2022-08-11T19:59:42;24.70;56.60
7117;DHT22;3600;48.568;7.870;2022-08-11T20:02:28;24.60;56.40
7117;DHT22;3600;48.568;7.870;2022-08-11T20:05:13;24.60;56.60
7117;DHT22;3600;48.568;7.870;2022-08-11T20:07:59;24.40;56.90
7117;DHT22;3600;48.568;7.870;2022-08-11T20:10:46;24.40;57.20
7117;DHT22;3600;48.568;7.870;2022-08-11T20:13:34;24.30;57.30
7117;DHT22;3600;48.568;7.870;2022-08-11T20:16:21;24.20;58.00
7117;DHT22;3600;48.568;7.870;2022-08-11T20:19:08;24.00;58.00
7117;DHT22;3600;48.568;7.870;2022-08-11T20:22:14;23.90;58.90
7117;DHT22;3600;48.568;7.870;2022-08-11T20:25:02;23.80;59.10
7117;DHT22;3600;48.568;7.870;2022-08-11T20:27:50;23.70;59.60
7117;DHT22;3600;48.568;7.870;2022-08-11T20:30:38;23.80;59.60
7117;DHT22;3600;48.568;7.870;2022-08-11T20:33:24;23.70;59.60
7117;DHT22;3600;48.568;7.870;2022-08-11T20:36:11;23.60;60.00
7117;DHT22;3600;48.568;7.870;2022-08-11T20:38:58;23.90;60.20
7117;DHT22;3600;48.568;7.870;2022-08-11T20:41:46;23.80;59.80
7117;DHT22;3600;48.568;7.870;2022-08-11T20:44:33;23.70;60.50
7117;DHT22;3600;48.568;7.870;2022-08-11T20:47:21;23.60;60.40
7117;DHT22;3600;48.568;7.870;2022-08-11T20:50:26;23.40;61.50
7117;DHT22;3600;48.568;7.870;2022-08-11T20:53:13;23.40;61.20
7117;DHT22;3600;48.568;7.870;2022-08-11T20:56:02;23.40;61.90
7117;DHT22;3600;48.568;7.870;2022-08-11T20:58:57;23.20;62.40